sensor_id;sensor_type;location;lat;lon;timestamp;pressure;altitude;pressure_sealevel;temperature;humidity
72428;BME280;60419;48.880;18.036;2022-08-19T00:00:21;98432.31;;;26.95;42.52
72428;BME280;60419;48.880;18.036;2022-08-19T00:03:06;98436.41;;;26.90;42.71
72428;BME280;60419;48.880;18.036;2022-08-19T00:05:52;98437.03;;;26.78;43.59
72428;BME280;60419;48.880;18.036;2022-08-19T00:08:38;98430.16;;;26.86;43.29
72428;BME280;60419;48.880;18.036;2022-08-19T00:11:24;98421.16;;;26.62;44.03
72428;BME280;60419;48.880;18.036;2022-08-19T00:14:14;98421.13;;;26.45;44.88
72428;BME280;60419;48.880;18.036;2022-08-19T00:17:01;98413.22;;;26.44;44.96
72428;BME280;60419;48.880;18.036;2022-08-19T00:19:47;98413.09;;;26.31;45.05
72428;BME280;60419;48.880;18.036;2022-08-19T00:22:33;98406.56;;;26.21;43.82
72428;BME280;60419;48.880;18.036;2022-08-19T00:25:18;98402.47;;;26.30;43.59
72428;BME280;60419;48.880;18.036;2022-08-19T00:28:04;98394.84;;;26.54;42.19
72428;BME280;60419;48.880;18.036;2022-08-19T00:30:49;98393.72;;;26.87;41.18
72428;BME280;60419;48.880;18.036;2022-08-19T00:33:36;98401.50;;;27.25;40.30
72428;BME280;60419;48.880;18.036;2022-08-19T00:36:22;98393.03;;;27.49;39.59
72428;BME280;60419;48.880;18.036;2022-08-19T00:39:08;98396.50;;;27.53;39.71
72428;BME280;60419;48.880;18.036;2022-08-19T00:41:54;98399.00;;;27.64;39.27
72428;BME280;60419;48.880;18.036;2022-08-19T00:44:39;98397.41;;;27.79;39.02
72428;BME280;60419;48.880;18.036;2022-08-19T00:47:25;98412.78;;;28.13;39.06
72428;BME280;60419;48.880;18.036;2022-08-19T00:50:13;98416.84;;;28.08;38.61
72428;BME280;60419;48.880;18.036;2022-08-19T00:53:00;98415.06;;;28.31;38.43
72428;BME280;60419;48.880;18.036;2022-08-19T00:55:51;98419.13;;;28.26;38.40
72428;BME280;60419;48.880;18.036;2022-08-19T00:58:38;98415.59;;;28.26;38.41
72428;BME280;60419;48.880;18.036;2022-08-19T01:01:25;98419.28;;;28.06;38.75
72428;BME280;60419;48.880;18.036;2022-08-19T01:04:10;98422.81;;;27.77;39.45
72428;BME280;60419;48.880;18.036;2022-08-19T01:06:57;98417.28;;;27.61;39.63
72428;BME280;60419;48.880;18.036;2022-08-19T01:09:43;98427.53;;;27.31;40.24
72428;BME280;60419;48.880;18.036;2022-08-19T01:12:28;98420.50;;;27.10;40.87
72428;BME280;60419;48.880;18.036;2022-08-19T01:15:17;98420.72;;;27.00;41.26
72428;BME280;60419;48.880;18.036;2022-08-19T01:18:08;98414.59;;;27.41;40.28
72428;BME280;60419;48.880;18.036;2022-08-19T01:20:56;98411.00;;;27.90;39.59
72428;BME280;60419;48.880;18.036;2022-08-19T01:23:44;98411.34;;;27.75;39.91
72428;BME280;60419;48.880;18.036;2022-08-19T01:26:29;98409.06;;;27.57;39.63
72428;BME280;60419;48.880;18.036;2022-08-19T01:29:15;98407.81;;;27.75;39.79
72428;BME280;60419;48.880;18.036;2022-08-19T01:32:01;98405.09;;;27.88;39.67
72428;BME280;60419;48.880;18.036;2022-08-19T01:34:46;98393.94;;;28.04;39.97
72428;BME280;60419;48.880;18.036;2022-08-19T01:37:42;98405.44;;;27.90;39.82
72428;BME280;60419;48.880;18.036;2022-08-19T01:40:31;98329.03;;;27.27;40.72
72428;BME280;60419;48.880;18.036;2022-08-19T01:43:18;98405.84;;;27.59;40.67
72428;BME280;60419;48.880;18.036;2022-08-19T01:46:04;98410.97;;;27.28;41.11
72428;BME280;60419;48.880;18.036;2022-08-19T01:48:49;98417.81;;;27.56;40.96
72428;BME280;60419;48.880;18.036;2022-08-19T01:51:35;98412.69;;;27.22;41.23
72428;BME280;60419;48.880;18.036;2022-08-19T01:54:23;98404.81;;;26.87;42.68
72428;BME280;60419;48.880;18.036;2022-08-19T01:57:12;98412.97;;;26.18;43.95
72428;BME280;60419;48.880;18.036;2022-08-19T01:59:59;98405.16;;;25.46;45.41
72428;BME280;60419;48.880;18.036;2022-08-19T02:02:46;98391.78;;;25.88;44.66
72428;BME280;60419;48.880;18.036;2022-08-19T02:05:32;98379.13;;;25.44;44.90
72428;BME280;60419;48.880;18.036;2022-08-19T02:08:18;98382.63;;;25.91;44.83
72428;BME280;60419;48.880;18.036;2022-08-19T02:11:04;98395.00;;;26.26;44.01
72428;BME280;60419;48.880;18.036;2022-08-19T02:13:50;98400.81;;;26.12;44.24
72428;BME280;60419;48.880;18.036;2022-08-19T02:16:36;98388.00;;;26.58;42.81
72428;BME280;60419;48.880;18.036;2022-08-19T02:19:21;98387.44;;;25.87;44.68
72428;BME280;60419;48.880;18.036;2022-08-19T02:22:07;98389.81;;;26.28;43.79
72428;BME280;60419;48.880;18.036;2022-08-19T02:24:53;98381.25;;;25.59;44.90
72428;BME280;60419;48.880;18.036;2022-08-19T02:27:40;98394.72;;;26.01;44.43
72428;BME280;60419;48.880;18.036;2022-08-19T02:30:26;98399.56;;;25.73;44.76
72428;BME280;60419;48.880;18.036;2022-08-19T02:33:11;98392.13;;;25.47;46.10
72428;BME280;60419;48.880;18.036;2022-08-19T02:35:57;98400.03;;;25.21;46.87
72428;BME280;60419;48.880;18.036;2022-08-19T02:38:43;98412.44;;;25.60;45.19
72428;BME280;60419;48.880;18.036;2022-08-19T02:41:31;98381.00;;;25.94;44.01
72428;BME280;60419;48.880;18.036;2022-08-19T02:44:16;98402.91;;;25.84;45.39
72428;BME280;60419;48.880;18.036;2022-08-19T02:47:02;98396.78;;;25.50;45.99
72428;BME280;60419;48.880;18.036;2022-08-19T02:49:47;98404.53;;;24.23;49.44
72428;BME280;60419;48.880;18.036;2022-08-19T02:52:35;98406.56;;;24.49;48.46
72428;BME280;60419;48.880;18.036;2022-08-19T02:55:20;98399.75;;;25.15;46.75
72428;BME280;60419;48.880;18.036;2022-08-19T02:58:07;98402.22;;;25.80;44.92
72428;BME280;60419;48.880;18.036;2022-08-19T03:00:54;98415.13;;;26.07;44.33
72428;BME280;60419;48.880;18.036;2022-08-19T03:03:40;98421.69;;;24.99;47.00
72428;BME280;60419;48.880;18.036;2022-08-19T03:06:27;98423.75;;;23.92;49.91
72428;BME280;60419;48.880;18.036;2022-08-19T03:09:13;98426.22;;;23.83;50.40
72428;BME280;60419;48.880;18.036;2022-08-19T03:11:59;98426.28;;;23.79;50.36
72428;BME280;60419;48.880;18.036;2022-08-19T03:14:44;98422.47;;;24.04;49.87
72428;BME280;60419;48.880;18.036;2022-08-19T03:17:31;98424.81;;;23.67;50.87
72428;BME280;60419;48.880;18.036;2022-08-19T03:20:17;98431.59;;;23.56;51.01
72428;BME280;60419;48.880;18.036;2022-08-19T03:23:02;98440.78;;;23.83;50.38
72428;BME280;60419;48.880;18.036;2022-08-19T03:25:48;98442.84;;;23.76;50.63
72428;BME280;60419;48.880;18.036;2022-08-19T03:28:35;98439.13;;;23.52;51.44
72428;BME280;60419;48.880;18.036;2022-08-19T03:31:21;98446.69;;;23.85;50.34
72428;BME280;60419;48.880;18.036;2022-08-19T03:34:15;98464.50;;;24.53;48.63
72428;BME280;60419;48.880;18.036;2022-08-19T03:37:09;98468.88;;;24.81;48.46
72428;BME280;60419;48.880;18.036;2022-08-19T03:39:54;98459.50;;;24.41;49.23
72428;BME280;60419;48.880;18.036;2022-08-19T03:42:40;98462.13;;;24.55;49.12
72428;BME280;60419;48.880;18.036;2022-08-19T03:45:27;98432.34;;;24.01;49.85
72428;BME280;60419;48.880;18.036;2022-08-19T03:48:12;98440.97;;;24.41;48.74
72428;BME280;60419;48.880;18.036;2022-08-19T03:50:58;98446.47;;;24.45;48.65
72428;BME280;60419;48.880;18.036;2022-08-19T03:53:44;98447.53;;;24.85;47.64
72428;BME280;60419;48.880;18.036;2022-08-19T03:56:29;98453.44;;;24.87;47.19
72428;BME280;60419;48.880;18.036;2022-08-19T03:59:30;98457.88;;;25.59;45.65
72428;BME280;60419;48.880;18.036;2022-08-19T04:02:16;98446.09;;;25.78;45.42
72428;BME280;60419;48.880;18.036;2022-08-19T04:05:02;98449.16;;;25.84;45.13
72428;BME280;60419;48.880;18.036;2022-08-19T04:07:48;98450.19;;;26.14;44.78
72428;BME280;60419;48.880;18.036;2022-08-19T04:10:37;98443.50;;;26.11;43.65
72428;BME280;60419;48.880;18.036;2022-08-19T04:13:22;98445.81;;;26.56;43.56
72428;BME280;60419;48.880;18.036;2022-08-19T04:16:08;98443.00;;;26.76;42.85
72428;BME280;60419;48.880;18.036;2022-08-19T04:18:55;98444.81;;;26.66;43.32
72428;BME280;60419;48.880;18.036;2022-08-19T04:21:44;98442.28;;;26.92;42.37
72428;BME280;60419;48.880;18.036;2022-08-19T04:24:30;98449.38;;;26.37;44.34
72428;BME280;60419;48.880;18.036;2022-08-19T04:27:16;98446.63;;;25.93;45.63
72428;BME280;60419;48.880;18.036;2022-08-19T04:30:02;98452.91;;;24.31;50.03
72428;BME280;60419;48.880;18.036;2022-08-19T04:32:48;98467.88;;;24.98;48.43
72428;BME280;60419;48.880;18.036;2022-08-19T04:35:39;98461.78;;;25.11;48.55
72428;BME280;60419;48.880;18.036;2022-08-19T04:38:24;98468.03;;;24.53;49.93
72428;BME280;60419;48.880;18.036;2022-08-19T04:41:10;98472.09;;;24.76;49.42
72428;BME280;60419;48.880;18.036;2022-08-19T04:44:15;98462.06;;;25.44;47.77
72428;BME280;60419;48.880;18.036;2022-08-19T04:47:03;98462.25;;;25.80;47.06
72428;BME280;60419;48.880;18.036;2022-08-19T04:49:51;98459.53;;;26.00;46.40
72428;BME280;60419;48.880;18.036;2022-08-19T04:52:38;98462.31;;;26.00;46.45
72428;BME280;60419;48.880;18.036;2022-08-19T04:55:27;98457.53;;;25.80;46.90
72428;BME280;60419;48.880;18.036;2022-08-19T04:58:13;98471.06;;;25.48;47.36
72428;BME280;60419;48.880;18.036;2022-08-19T05:00:58;98456.06;;;26.16;46.33
72428;BME280;60419;48.880;18.036;2022-08-19T05:03:45;98458.94;;;26.72;45.32
72428;BME280;60419;48.880;18.036;2022-08-19T05:06:32;98467.16;;;26.76;45.27
72428;BME280;60419;48.880;18.036;2022-08-19T05:09:18;98464.13;;;26.90;45.14
72428;BME280;60419;48.880;18.036;2022-08-19T05:12:04;98459.72;;;26.73;45.72
72428;BME280;60419;48.880;18.036;2022-08-19T05:14:51;98453.31;;;27.12;44.74
72428;BME280;60419;48.880;18.036;2022-08-19T05:17:37;98453.53;;;26.65;45.94
72428;BME280;60419;48.880;18.036;2022-08-19T05:20:22;98451.47;;;26.69;46.27
72428;BME280;60419;48.880;18.036;2022-08-19T05:23:26;98448.91;;;26.78;46.12
72428;BME280;60419;48.880;18.036;2022-08-19T05:26:11;98466.72;;;25.74;48.91
72428;BME280;60419;48.880;18.036;2022-08-19T05:28:57;98468.75;;;26.57;46.47
72428;BME280;60419;48.880;18.036;2022-08-19T05:31:43;98465.34;;;26.49;46.72
72428;BME280;60419;48.880;18.036;2022-08-19T05:34:29;98468.38;;;26.35;46.87
72428;BME280;60419;48.880;18.036;2022-08-19T05:37:14;98470.84;;;26.89;45.71
72428;BME280;60419;48.880;18.036;2022-08-19T05:39:59;98475.72;;;26.85;46.19
72428;BME280;60419;48.880;18.036;2022-08-19T05:42:45;98474.06;;;26.67;46.43
72428;BME280;60419;48.880;18.036;2022-08-19T05:45:31;98471.47;;;26.97;45.68
72428;BME280;60419;48.880;18.036;2022-08-19T05:48:17;98480.53;;;26.81;45.33
72428;BME280;60419;48.880;18.036;2022-08-19T05:51:05;98490.81;;;26.80;45.79
72428;BME280;60419;48.880;18.036;2022-08-19T05:53:51;98501.25;;;26.73;46.40
72428;BME280;60419;48.880;18.036;2022-08-19T05:56:37;98501.28;;;27.09;45.08
72428;BME280;60419;48.880;18.036;2022-08-19T05:59:24;98470.56;;;25.80;47.75
72428;BME280;60419;48.880;18.036;2022-08-19T06:02:09;98507.47;;;24.88;50.75
72428;BME280;60419;48.880;18.036;2022-08-19T06:04:55;98487.09;;;26.07;48.09
72428;BME280;60419;48.880;18.036;2022-08-19T06:07:40;98491.19;;;26.22;47.41
72428;BME280;60419;48.880;18.036;2022-08-19T06:10:26;98502.16;;;27.06;45.72
72428;BME280;60419;48.880;18.036;2022-08-19T06:13:11;98499.84;;;26.44;46.96
72428;BME280;60419;48.880;18.036;2022-08-19T06:15:57;98501.16;;;26.76;45.85
72428;BME280;60419;48.880;18.036;2022-08-19T06:18:42;98516.50;;;26.84;45.42
72428;BME280;60419;48.880;18.036;2022-08-19T06:21:29;98523.22;;;27.56;43.98
72428;BME280;60419;48.880;18.036;2022-08-19T06:24:19;98506.56;;;27.56;43.14
72428;BME280;60419;48.880;18.036;2022-08-19T06:27:05;98522.88;;;27.87;42.76
72428;BME280;60419;48.880;18.036;2022-08-19T06:29:50;98507.75;;;28.20;42.13
72428;BME280;60419;48.880;18.036;2022-08-19T06:32:36;98518.75;;;28.53;42.16
72428;BME280;60419;48.880;18.036;2022-08-19T06:35:21;98519.09;;;28.55;42.65
72428;BME280;60419;48.880;18.036;2022-08-19T06:38:06;98508.41;;;28.25;42.20
72428;BME280;60419;48.880;18.036;2022-08-19T06:41:00;98528.50;;;27.99;42.38
72428;BME280;60419;48.880;18.036;2022-08-19T06:43:46;98522.34;;;27.59;43.81
72428;BME280;60419;48.880;18.036;2022-08-19T06:46:34;98504.94;;;27.58;42.71
72428;BME280;60419;48.880;18.036;2022-08-19T06:49:20;98523.81;;;27.80;42.78
72428;BME280;60419;48.880;18.036;2022-08-19T06:52:06;98525.00;;;28.12;41.29
72428;BME280;60419;48.880;18.036;2022-08-19T06:54:52;98521.53;;;28.24;40.46
72428;BME280;60419;48.880;18.036;2022-08-19T06:57:37;98512.06;;;28.67;39.73
72428;BME280;60419;48.880;18.036;2022-08-19T07:00:23;98515.66;;;29.06;39.60
72428;BME280;60419;48.880;18.036;2022-08-19T07:03:08;98518.09;;;28.91;39.15
72428;BME280;60419;48.880;18.036;2022-08-19T07:05:53;98518.59;;;29.28;38.71
72428;BME280;60419;48.880;18.036;2022-08-19T07:08:39;98528.88;;;29.79;37.29
72428;BME280;60419;48.880;18.036;2022-08-19T07:11:27;98520.00;;;29.07;38.05
72428;BME280;60419;48.880;18.036;2022-08-19T07:14:13;98529.84;;;29.24;38.13
72428;BME280;60419;48.880;18.036;2022-08-19T07:16:59;98533.59;;;29.82;37.06
72428;BME280;60419;48.880;18.036;2022-08-19T07:19:44;98535.50;;;30.20;37.40
72428;BME280;60419;48.880;18.036;2022-08-19T07:22:30;98522.75;;;30.44;35.19
72428;BME280;60419;48.880;18.036;2022-08-19T07:25:16;98522.75;;;30.75;35.88
72428;BME280;60419;48.880;18.036;2022-08-19T07:28:03;98522.75;;;30.75;36.00
72428;BME280;60419;48.880;18.036;2022-08-19T07:30:48;98522.28;;;30.46;34.89
72428;BME280;60419;48.880;18.036;2022-08-19T07:33:35;98518.19;;;30.59;35.31
72428;BME280;60419;48.880;18.036;2022-08-19T07:36:24;98537.88;;;30.08;36.34
72428;BME280;60419;48.880;18.036;2022-08-19T07:39:22;98530.47;;;29.92;36.73
72428;BME280;60419;48.880;18.036;2022-08-19T07:42:10;98534.56;;;30.01;36.60
72428;BME280;60419;48.880;18.036;2022-08-19T07:44:56;98532.41;;;30.05;35.78
72428;BME280;60419;48.880;18.036;2022-08-19T07:47:41;98533.69;;;29.91;36.09
72428;BME280;60419;48.880;18.036;2022-08-19T07:50:26;98536.81;;;29.93;36.10
72428;BME280;60419;48.880;18.036;2022-08-19T07:53:12;98541.59;;;29.80;37.02
72428;BME280;60419;48.880;18.036;2022-08-19T07:55:58;98541.25;;;29.90;36.26
72428;BME280;60419;48.880;18.036;2022-08-19T07:58:50;98546.31;;;30.17;36.20
72428;BME280;60419;48.880;18.036;2022-08-19T08:01:36;98541.81;;;29.98;36.18
72428;BME280;60419;48.880;18.036;2022-08-19T08:04:22;98549.25;;;30.01;35.92
72428;BME280;60419;48.880;18.036;2022-08-19T08:07:26;98541.06;;;30.54;35.23
72428;BME280;60419;48.880;18.036;2022-08-19T08:10:30;98537.09;;;30.43;35.25
72428;BME280;60419;48.880;18.036;2022-08-19T08:13:16;98544.44;;;30.71;35.54
72428;BME280;60419;48.880;18.036;2022-08-19T08:16:02;98544.34;;;30.62;35.46
72428;BME280;60419;48.880;18.036;2022-08-19T08:18:48;98527.63;;;30.84;34.78
72428;BME280;60419;48.880;18.036;2022-08-19T08:21:33;98520.91;;;30.94;34.76
72428;BME280;60419;48.880;18.036;2022-08-19T08:24:19;98541.38;;;31.00;34.43
72428;BME280;60419;48.880;18.036;2022-08-19T08:27:05;98539.44;;;31.10;34.69
72428;BME280;60419;48.880;18.036;2022-08-19T08:29:50;98539.72;;;30.81;35.15
72428;BME280;60419;48.880;18.036;2022-08-19T08:32:37;98529.94;;;30.86;34.80
72428;BME280;60419;48.880;18.036;2022-08-19T08:35:24;98530.66;;;31.21;34.08
72428;BME280;60419;48.880;18.036;2022-08-19T08:38:09;98522.44;;;31.26;34.15
72428;BME280;60419;48.880;18.036;2022-08-19T08:41:01;98521.81;;;31.22;34.08
72428;BME280;60419;48.880;18.036;2022-08-19T08:43:52;98520.75;;;30.98;34.40
72428;BME280;60419;48.880;18.036;2022-08-19T08:46:48;98514.31;;;31.10;34.75
72428;BME280;60419;48.880;18.036;2022-08-19T08:49:45;98514.22;;;31.23;34.16
72428;BME280;60419;48.880;18.036;2022-08-19T08:52:37;98514.44;;;30.53;35.83
72428;BME280;60419;48.880;18.036;2022-08-19T08:55:28;98508.41;;;30.99;35.05
72428;BME280;60419;48.880;18.036;2022-08-19T08:58:24;98488.16;;;31.17;35.06
72428;BME280;60419;48.880;18.036;2022-08-19T09:01:11;98503.31;;;31.47;34.75
72428;BME280;60419;48.880;18.036;2022-08-19T09:03:56;98498.28;;;31.73;33.99
72428;BME280;60419;48.880;18.036;2022-08-19T09:06:54;98495.53;;;32.10;33.47
72428;BME280;60419;48.880;18.036;2022-08-19T09:09:46;98487.16;;;32.01;33.26
72428;BME280;60419;48.880;18.036;2022-08-19T09:12:55;98489.25;;;31.69;33.93
72428;BME280;60419;48.880;18.036;2022-08-19T09:15:49;98481.72;;;32.34;33.19
72428;BME280;60419;48.880;18.036;2022-08-19T09:18:44;98481.44;;;32.32;33.40
72428;BME280;60419;48.880;18.036;2022-08-19T09:21:31;98482.94;;;32.51;33.13
72428;BME280;60419;48.880;18.036;2022-08-19T09:24:17;98478.59;;;32.60;32.75
72428;BME280;60419;48.880;18.036;2022-08-19T09:27:02;98478.63;;;32.32;32.96
72428;BME280;60419;48.880;18.036;2022-08-19T09:29:49;98473.66;;;32.45;32.35
72428;BME280;60419;48.880;18.036;2022-08-19T09:32:35;98475.22;;;32.55;32.72
72428;BME280;60419;48.880;18.036;2022-08-19T09:35:23;98475.03;;;32.59;32.18
72428;BME280;60419;48.880;18.036;2022-08-19T09:38:08;98474.91;;;32.17;32.74
72428;BME280;60419;48.880;18.036;2022-08-19T09:40:54;98478.75;;;32.47;32.28
72428;BME280;60419;48.880;18.036;2022-08-19T09:43:40;98478.91;;;32.52;31.79
72428;BME280;60419;48.880;18.036;2022-08-19T09:46:29;98471.00;;;32.60;31.58
72428;BME280;60419;48.880;18.036;2022-08-19T09:49:17;98468.38;;;32.57;31.45
72428;BME280;60419;48.880;18.036;2022-08-19T09:52:03;98455.88;;;32.76;31.93
72428;BME280;60419;48.880;18.036;2022-08-19T09:54:52;98463.88;;;33.11;31.27
72428;BME280;60419;48.880;18.036;2022-08-19T09:57:38;98458.72;;;33.18;30.96
72428;BME280;60419;48.880;18.036;2022-08-19T10:00:23;98450.19;;;33.13;31.27
72428;BME280;60419;48.880;18.036;2022-08-19T10:03:09;98463.19;;;32.83;31.96
72428;BME280;60419;48.880;18.036;2022-08-19T10:05:58;98454.97;;;32.70;31.69
72428;BME280;60419;48.880;18.036;2022-08-19T10:08:45;98451.38;;;32.78;31.17
72428;BME280;60419;48.880;18.036;2022-08-19T10:11:31;98448.50;;;32.97;31.08
72428;BME280;60419;48.880;18.036;2022-08-19T10:14:16;98444.34;;;33.26;31.29
72428;BME280;60419;48.880;18.036;2022-08-19T10:17:02;98440.53;;;33.14;30.82
72428;BME280;60419;48.880;18.036;2022-08-19T10:19:47;98436.25;;;33.28;30.21
72428;BME280;60419;48.880;18.036;2022-08-19T10:22:33;98444.56;;;32.70;31.07
72428;BME280;60419;48.880;18.036;2022-08-19T10:25:20;98437.44;;;32.69;30.91
72428;BME280;60419;48.880;18.036;2022-08-19T10:28:06;98425.19;;;33.09;30.33
72428;BME280;60419;48.880;18.036;2022-08-19T10:30:52;98433.53;;;33.18;30.70
72428;BME280;60419;48.880;18.036;2022-08-19T10:33:38;98436.69;;;33.02;31.24
72428;BME280;60419;48.880;18.036;2022-08-19T10:36:33;98423.13;;;33.43;30.02
72428;BME280;60419;48.880;18.036;2022-08-19T10:39:20;98425.28;;;33.72;30.44
72428;BME280;60419;48.880;18.036;2022-08-19T10:42:06;98434.41;;;33.58;29.81
72428;BME280;60419;48.880;18.036;2022-08-19T10:44:52;98430.81;;;33.81;29.63
72428;BME280;60419;48.880;18.036;2022-08-19T10:47:37;98434.50;;;33.88;29.94
72428;BME280;60419;48.880;18.036;2022-08-19T10:50:22;98411.13;;;33.91;29.59
72428;BME280;60419;48.880;18.036;2022-08-19T10:53:26;98423.78;;;34.01;29.81
72428;BME280;60419;48.880;18.036;2022-08-19T10:56:12;98425.03;;;33.85;29.44
72428;BME280;60419;48.880;18.036;2022-08-19T10:59:18;98414.59;;;33.85;28.72
72428;BME280;60419;48.880;18.036;2022-08-19T11:02:09;98415.59;;;33.97;28.64
72428;BME280;60419;48.880;18.036;2022-08-19T11:04:55;98421.75;;;34.25;28.22
72428;BME280;60419;48.880;18.036;2022-08-19T11:07:41;98427.63;;;34.57;27.90
72428;BME280;60419;48.880;18.036;2022-08-19T11:10:26;98435.97;;;34.66;28.21
72428;BME280;60419;48.880;18.036;2022-08-19T11:13:12;98429.94;;;35.03;26.95
72428;BME280;60419;48.880;18.036;2022-08-19T11:16:02;98437.81;;;34.69;27.55
72428;BME280;60419;48.880;18.036;2022-08-19T11:18:53;98443.38;;;34.10;28.58
72428;BME280;60419;48.880;18.036;2022-08-19T11:21:42;98441.09;;;33.99;28.28
72428;BME280;60419;48.880;18.036;2022-08-19T11:24:29;98426.94;;;34.33;27.75
72428;BME280;60419;48.880;18.036;2022-08-19T11:27:15;98429.97;;;34.44;27.75
72428;BME280;60419;48.880;18.036;2022-08-19T11:30:01;98412.47;;;34.64;28.23
72428;BME280;60419;48.880;18.036;2022-08-19T11:32:48;98414.72;;;34.60;27.89
72428;BME280;60419;48.880;18.036;2022-08-19T11:35:38;98417.91;;;34.67;27.49
72428;BME280;60419;48.880;18.036;2022-08-19T11:38:24;98428.69;;;34.15;28.28
72428;BME280;60419;48.880;18.036;2022-08-19T11:41:10;98420.19;;;34.69;27.82
72428;BME280;60419;48.880;18.036;2022-08-19T11:43:56;98417.31;;;34.63;26.78
72428;BME280;60419;48.880;18.036;2022-08-19T11:46:43;98419.81;;;34.46;26.99
72428;BME280;60419;48.880;18.036;2022-08-19T11:49:31;98416.25;;;34.61;26.84
72428;BME280;60419;48.880;18.036;2022-08-19T11:52:16;98414.69;;;34.30;27.22
72428;BME280;60419;48.880;18.036;2022-08-19T11:55:02;98409.38;;;34.47;27.40
72428;BME280;60419;48.880;18.036;2022-08-19T11:57:48;98410.44;;;34.49;27.14
72428;BME280;60419;48.880;18.036;2022-08-19T12:00:34;98392.16;;;34.54;27.05
72428;BME280;60419;48.880;18.036;2022-08-19T12:03:22;98377.47;;;34.44;26.86
72428;BME280;60419;48.880;18.036;2022-08-19T12:06:10;98403.84;;;34.53;27.75
72428;BME280;60419;48.880;18.036;2022-08-19T12:09:00;98386.97;;;34.62;27.71
72428;BME280;60419;48.880;18.036;2022-08-19T12:11:46;98391.66;;;34.85;27.22
72428;BME280;60419;48.880;18.036;2022-08-19T12:14:31;98390.88;;;34.85;26.93
72428;BME280;60419;48.880;18.036;2022-08-19T12:17:17;98389.41;;;34.89;26.53
72428;BME280;60419;48.880;18.036;2022-08-19T12:20:03;98396.22;;;34.83;26.66
72428;BME280;60419;48.880;18.036;2022-08-19T12:22:50;98387.38;;;34.90;26.40
72428;BME280;60419;48.880;18.036;2022-08-19T12:25:37;98398.25;;;34.38;27.04
72428;BME280;60419;48.880;18.036;2022-08-19T12:28:24;98388.03;;;34.64;26.33
72428;BME280;60419;48.880;18.036;2022-08-19T12:31:10;98374.84;;;34.56;26.95
72428;BME280;60419;48.880;18.036;2022-08-19T12:33:59;98376.81;;;34.20;26.88
72428;BME280;60419;48.880;18.036;2022-08-19T12:36:45;98370.03;;;34.26;27.35
72428;BME280;60419;48.880;18.036;2022-08-19T12:39:37;98384.81;;;34.27;27.15
72428;BME280;60419;48.880;18.036;2022-08-19T12:42:23;98379.31;;;34.33;26.84
72428;BME280;60419;48.880;18.036;2022-08-19T12:45:09;98393.81;;;34.46;27.00
72428;BME280;60419;48.880;18.036;2022-08-19T12:47:56;98372.81;;;34.71;27.08
72428;BME280;60419;48.880;18.036;2022-08-19T12:50:43;98377.56;;;34.35;27.04
72428;BME280;60419;48.880;18.036;2022-08-19T12:53:32;98372.47;;;34.34;28.09
72428;BME280;60419;48.880;18.036;2022-08-19T12:56:17;98371.16;;;34.05;27.56
72428;BME280;60419;48.880;18.036;2022-08-19T12:59:04;98368.41;;;34.20;27.08
72428;BME280;60419;48.880;18.036;2022-08-19T13:01:49;98374.69;;;34.59;26.66
72428;BME280;60419;48.880;18.036;2022-08-19T13:04:35;98366.34;;;34.65;25.85
72428;BME280;60419;48.880;18.036;2022-08-19T13:07:22;98356.56;;;34.45;26.18
72428;BME280;60419;48.880;18.036;2022-08-19T13:10:10;98365.50;;;34.29;27.24
72428;BME280;60419;48.880;18.036;2022-08-19T13:12:57;98365.53;;;34.79;26.76
72428;BME280;60419;48.880;18.036;2022-08-19T13:15:44;98363.19;;;34.27;27.52
72428;BME280;60419;48.880;18.036;2022-08-19T13:18:30;98354.19;;;34.38;26.96
72428;BME280;60419;48.880;18.036;2022-08-19T13:21:16;98357.34;;;34.01;28.21
72428;BME280;60419;48.880;18.036;2022-08-19T13:24:02;98350.03;;;34.34;26.75
72428;BME280;60419;48.880;18.036;2022-08-19T13:26:47;98352.63;;;34.67;26.49
72428;BME280;60419;48.880;18.036;2022-08-19T13:29:33;98335.69;;;34.61;27.21
72428;BME280;60419;48.880;18.036;2022-08-19T13:32:37;98337.38;;;34.88;26.71
72428;BME280;60419;48.880;18.036;2022-08-19T13:38:28;98331.47;;;35.22;25.68
72428;BME280;60419;48.880;18.036;2022-08-19T13:41:15;98331.13;;;34.79;26.48
72428;BME280;60419;48.880;18.036;2022-08-19T13:44:00;98330.88;;;34.47;26.59
72428;BME280;60419;48.880;18.036;2022-08-19T13:46:48;98333.69;;;34.32;26.85
72428;BME280;60419;48.880;18.036;2022-08-19T13:49:36;98340.06;;;34.33;27.14
72428;BME280;60419;48.880;18.036;2022-08-19T13:52:21;98347.41;;;34.45;26.75
72428;BME280;60419;48.880;18.036;2022-08-19T13:55:08;98328.38;;;34.34;26.84
72428;BME280;60419;48.880;18.036;2022-08-19T13:57:56;98332.41;;;34.48;26.46
72428;BME280;60419;48.880;18.036;2022-08-19T14:00:44;98320.63;;;34.44;26.86
72428;BME280;60419;48.880;18.036;2022-08-19T14:03:31;98318.91;;;34.46;26.53
72428;BME280;60419;48.880;18.036;2022-08-19T14:06:17;98321.41;;;34.59;26.73
72428;BME280;60419;48.880;18.036;2022-08-19T14:09:03;98331.94;;;34.35;27.39
72428;BME280;60419;48.880;18.036;2022-08-19T14:11:49;98355.88;;;33.04;29.93
72428;BME280;60419;48.880;18.036;2022-08-19T14:14:39;98390.34;;;31.88;33.65
72428;BME280;60419;48.880;18.036;2022-08-19T14:17:24;98457.88;;;30.97;39.37
72428;BME280;60419;48.880;18.036;2022-08-19T14:20:11;98526.53;;;26.95;55.80
72428;BME280;60419;48.880;18.036;2022-08-19T14:22:57;98557.16;;;26.00;60.31
72428;BME280;60419;48.880;18.036;2022-08-19T14:25:43;98579.84;;;24.35;64.35
72428;BME280;60419;48.880;18.036;2022-08-19T14:28:28;98600.03;;;24.24;65.22
72428;BME280;60419;48.880;18.036;2022-08-19T14:31:16;98575.28;;;24.17;65.05
72428;BME280;60419;48.880;18.036;2022-08-19T14:34:03;98594.53;;;23.72;67.18
72428;BME280;60419;48.880;18.036;2022-08-19T14:36:49;98541.63;;;23.88;60.09